Millwood, KY (42762)

1:08 AM CDT on July 30, 2015 (GMT -0500)
1178 Owensboro Road, Leitchfield | | Change Station
CLOSE
Current Station
Personal Weather Station
Location: Leitchfield, KY
Elevation: 676 ft
Nearby Weather Stations

Elev 676 ft 37.48 °N, 86.31 °W | Updated 8 minutes ago

Clear
Clear
73.6 °F
Feels Like 73.6 °F
N
0.0
Wind Variable Wind from ESE

Today
High -- | Low -- °F
--% Chance of Precip.
Yesterday
High -- | Low -- °F
Precip. -- in
5:48 AM 7:55 PM
Waxing Gibbous, 98% visible
Pressure 30.01 in
Visibility 10.0 miles
Clouds Mostly Cloudy 2400 ft
Dew Point 73 °F
Humidity 99%
Rainfall 0.00 in
Snow Depth Not available.
UV 0 out of 12
Pollen 3.70 out of 12
Air Quality Not available.
Flu Activity Not available.
METAR KBWG 300553Z AUTO 00000KT 10SM BKN024 24/22 A3003 RMK AO2 SLP162 60006 T02390222 10322 20239 403440222 56007

More Conditions Fewer Conditions

Pressure 30.01 in
Visibility 10.0 miles
Clouds Mostly Cloudy 2400 ft
Dew Point 73 °F
Humidity 99%
Rainfall 0.00 in
Snow Depth Not available.
UV 0 out of 12
Pollen 3.70 out of 12
Air Quality Not available.
Flu Activity Not available.
METAR KBWG 300553Z AUTO 00000KT 10SM BKN024 24/22 A3003 RMK AO2 SLP162 60006 T02390222 10322 20239 403440222 56007

More Conditions Fewer Conditions

10-Day Weather Forecast

×

Almanac

Astronomy

Jul. 30, 2015 Rise Set
Actual Time
Civil Twilight
Nautical Twilight
Astronomical Twilight
Moon
Length of Visible Light
Length of Day
Tomorrow will be .
, % of the Moon is Illuminated

Today's Extremes

State Highs State Lows

Community

WunderPhotos

Upload Photos

1,842,312 photos uploaded!

WunderBlogs® & News

Nearby

Air Quality

  Air Quality AQ Index Pollutant
Not available.

Snow Depth

Station Depth Elevation

Earthquake Activity

City Distance Mag. Time & Date
Minimum magnitude displayed is 2.5.

Coastal Water Temperatures

Place Temperature

Stations

Nearby Weather Stations

Station Location Temp. Windchill Dew Point Humidity Wind Precip. Elev Updated Type